• Join FlightAware (Why Join?)
  • Login
  • US Flag 
09:19AM EDT


 

Airport Tracker/Info


-or-


 

Live Flight TrackerFlight Track Log ✈ FLG3746 ✈ 05-May-2014 ✈ KALB - KDTW

Flight Track Log - Related Links

Times and Time Zones

All times are in EDT time to prevent confusion due to time zone crossing. See the FLG3746 flight status page for this flight to view local times or setup timezone preferences in your user account.

Time Position Orientation Groundspeed Altitude Reporting Facility
EDT Latitude Longitude Course Direction KTS MPH feet Rate Location/Type
02:05PM 42.7503 -73.8203 284° West 155 178 1,200  Level Boston Center
02:06PM 42.7608 -73.8792 284° West 184 212 3,300 2,100 Climbing Boston Center
02:07PM 42.7717 -73.8958 312° West 182 209 4,100 2,640 Climbing Boston Center
02:08PM 42.8136 -73.9744 306° West 235 270 6,800 2,580 Climbing Boston Center
02:09PM 42.8556 -74.0569 305° West 263 303 9,400 2,520 Climbing Boston Center
02:10PM 42.9008 -74.1442 305° West 277 319 12,000 2,040 Climbing Boston Center
02:11PM 42.9494 -74.2403 305° West 308 354 13,700 1,560 Climbing Boston Center
02:12PM 42.9744 -74.3753 284° West 351 404 15,200 1,680 Climbing Boston Center
02:13PM 42.9892 -74.5103 279° West 356 410 17,100 1,800 Climbing Boston Center
02:14PM 43.0039 -74.6450 279° West 357 411 19,000 1,740 Climbing Boston Center
02:15PM 43.0167 -74.7703 278° West 352 405 20,800 1,680 Climbing Boston Center
02:16PM 43.0297 -74.8994 278° West 347 399 22,500 1,440 Climbing Boston Center
02:17PM 43.0433 -75.0264 278° West 341 392 23,800 1,140 Climbing Boston Center
02:18PM 43.0572 -75.1536 279° West 340 391 24,900 900 Climbing Boston Center
02:19PM 43.0708 -75.2811 278° West 339 390 25,700 780 Climbing Boston Center
02:20PM 43.0842 -75.4081 278° West 339 390 26,500 600 Climbing Boston Center
02:21PM 43.0972 -75.5364 278° West 339 390 27,000 540 Climbing Boston Center
02:22PM 43.1097 -75.6647 278° West 339 390 27,700 480 Climbing Boston Center
02:23PM 43.1228 -75.7939 278° West 339 390 28,000 120 Climbing Boston Center
02:24PM 43.1378 -75.9531 277° West 347 399 28,000  Level Boston Center
02:25PM 43.1506 -76.0869 277° West 353 406 28,000  Level Boston Center
02:26PM 43.1600 -76.2225 276° West 357 411 28,000  Level Boston Center
02:27PM 43.1475 -76.3633 263° West 371 427 28,000  Level Boston Center
02:28PM 43.1356 -76.5039 263° West 372 428 28,000  Level Boston Center
02:29PM 43.1239 -76.6458 264° West 372 428 28,000  Level Boston Center
02:30PM 43.1122 -76.7803 263° West 373 429 28,000  Level Boston Center
02:31PM 43.0997 -76.9228 263° West 376 433 28,000  Level Boston Center
02:32PM 43.0833 -77.0944 263° West 381 438 28,000  Level Boston Center
02:33PM 43.0700 -77.2389 263° West 382 440 28,000  Level Boston Center
02:34PM 43.0564 -77.3822 263° West 382 440 28,000  Level Boston Center
02:35PM 43.0428 -77.5272 263° West 384 442 28,000  Level Boston Center
02:36PM 43.0253 -77.7000 262° West 385 443 28,000  Level Cleveland Center
02:37PM 43.0117 -77.8442 263° West 386 444 28,000  Level Cleveland Center
02:38PM 42.9978 -77.9892 263° West 387 445 28,000  Level Cleveland Center
02:39PM 42.9825 -78.1347 262° West 389 448 28,000  Level Cleveland Center
02:40PM 42.9675 -78.2822 262° West 396 456 28,000  Level Cleveland Center
02:41PM 42.9497 -78.4581 262° West 394 453 28,000  Level Cleveland Center
02:42PM 42.9344 -78.6042 262° West 392 451 28,000  Level Cleveland Center
02:43PM 42.9144 -78.7492 259° West 392 451 28,000  Level Cleveland Center
02:45PM 42.8939 -78.8964 259° West 395 455 28,000  Level Cleveland Center
02:46PM 42.8717 -79.0425 258° West 395 455 28,000  Level Cleveland Center
02:47PM 42.8508 -79.1894 259° West 396 456 28,000  Level Cleveland Center
02:48PM 42.8239 -79.3664 258° West 398 458 28,000  Level Cleveland Center
02:49PM 42.8025 -79.5164 259° West 403 464 28,000  Level Cleveland Center
02:50PM 42.7794 -79.6636 258° West 401 461 28,000  Level Cleveland Center
02:51PM 42.7569 -79.8106 258° West 400 460 28,000  Level Cleveland Center
02:52PM 42.7458 -79.9778 265° West 399 459 28,000  Level Cleveland Center
02:53PM 42.7394 -80.1225 267° West 394 453 28,000  Level Cleveland Center
02:54PM 42.7339 -80.2731 267° West 394 453 28,000  Level Cleveland Center
02:55PM 42.7281 -80.4222 267° West 394 453 28,000  Level Cleveland Center
02:56PM 42.7203 -80.5964 267° West 392 451 28,000  Level Cleveland Center
02:57PM 42.7136 -80.7450 267° West 392 451 28,000  Level Cleveland Center
02:58PM 42.7064 -80.8950 266° West 395 455 28,000  Level Cleveland Center
02:59PM 42.6897 -81.0439 261° West 395 455 28,000  Level Cleveland Center
03:00PM 42.6725 -81.1908 261° West 395 455 28,000  Level Cleveland Center
03:01PM 42.6556 -81.3375 261° West 394 453 28,000 -300 Level Cleveland Center
03:02PM 42.6389 -81.4844 261° West 394 453 27,400 -1,320 Descending Cleveland Center
03:03PM 42.6194 -81.6528 261° West 387 445 25,300 -2,160 Descending Cleveland Center
03:04PM 42.6031 -81.7911 261° West 373 429 22,900 -2,280 Descending Cleveland Center
03:05PM 42.5878 -81.9103 260° West 358 412 20,700 -2,460 Descending Cleveland Center
03:06PM 42.5683 -82.0703 261° West 358 412 17,900 -2,520 Descending Cleveland Center
03:07PM 42.5658 -82.0981 263° West 354 407 17,500 -2,340 Descending Cleveland Center
03:07PM 42.5533 -82.2017 261° West 357 411 15,500 -2,520 Descending Cleveland Center
03:08PM 42.5344 -82.3461 260° West 346 398 12,900 -1,740 Descending Cleveland Center
03:09PM 42.5222 -82.4447 260° West 322 371 12,000 -480 Descending Cleveland Center
03:10PM 42.5050 -82.5575 258° West 258 297 12,000 -480 Level Cleveland Center
03:11PM 42.4767 -82.6375 244° Southwest 273 314 11,100 -1,380 Descending Cleveland Center
03:12PM 42.4372 -82.7439 243° Southwest 261 300 9,300 -1,080 Descending Cleveland Center
03:13PM 42.4056 -82.8328 244° Southwest 261 300 9,000 -600 Descending Cleveland Center
03:14PM 42.3864 -82.9236 254° West 242 278 8,100 -1,080 Descending Cleveland Center
03:15PM 42.3775 -83.0156 263° West 247 284 6,900 -1,080 Descending Cleveland Center
03:16PM 42.3939 -83.1025 284° West 249 287 6,000 -1,080 Descending Cleveland Center
03:17PM 42.3992 -83.1994 274° West 247 284 4,800 -1,140 Descending Cleveland Center
03:19PM 42.3436 -83.2425 210° Southwest 213 245 3,800 -960 Descending Cleveland Center
03:19PM 42.3386 -83.2453 202° Southwest 233 268 3,700 -1,320 Descending Cleveland Center
03:20PM 42.2967 -83.2783 210° Southwest 177 204 2,500 -1,260 Descending Cleveland Center
03:20PM 42.2919 -83.2814 206° Southwest 204 235 2,400 -900 Descending Cleveland Center
03:21PM 42.2569 -83.3067 208° Southwest 146 168 1,600 -900 Descending Cleveland Center
03:21PM 42.2542 -83.3086 207° Southwest 165 190 1,500 -840 Descending Cleveland Center
03:22PM 42.2214 -83.3325 208° Southwest 142 163 800 -300 Descending Cleveland Center
03:22PM 42.2208 -83.3322 160° South 158 182 1,200 1,560 Climbing Cleveland Center
03:24PM 42.2000 -83.3500 246° West  Level FlightAware Approximate
03:31PM 42.2124 -83.3534 246° West  Level Estimated